Time;durP1;ratioP1;P1;durP2;ratioP2;P2;SDS_P1;SDS_P2;PMS_P1;PMS_P2;Temp;Humidity;BMP_temperature;BMP_pressure;BME280_temperature;BME280_humidity;BME280_pressure;Samples;Min_cycle;Max_cycle;Signal;HPM_P1;HPM_P2
2023/09/11 00:00:33;;;;;;;2.42;1.95;;;27.30;42.50;;;;;;5011270;28;20026;-71
2023/09/11 00:03:17;;;;;;;2.63;1.77;;;27.40;42.50;;;;;;4992369;28;20049;-71
2023/09/11 00:05:43;;;;;;;2.85;2.20;;;27.20;42.50;;;;;;5008494;28;20090;-71
2023/09/11 00:08:31;;;;;;;6.53;1.80;;;27.20;42.60;;;;;;5009119;28;20069;-71
2023/09/11 00:11:05;;;;;;;2.85;2.10;;;27.20;42.60;;;;;;5008918;28;20042;-70
2023/09/11 00:13:32;;;;;;;4.57;2.10;;;27.20;42.60;;;;;;5008769;28;20420;-71
2023/09/11 00:16:01;;;;;;;8.52;1.75;;;27.20;42.60;;;;;;5009013;28;20049;-71
2023/09/11 00:18:27;;;;;;;4.15;1.90;;;27.10;42.80;;;;;;5008953;28;20053;-70
2023/09/11 00:23:52;;;;;;;2.08;1.50;;;27.10;42.90;;;;;;5077865;28;20020;-71
2023/09/11 00:26:23;;;;;;;2.40;1.77;;;27.30;42.90;;;;;;5090680;28;20032;-71
2023/09/11 00:29:18;;;;;;;;;;;;;;;;;;;;;
2023/09/11 00:32:32;;;;;;;5.72;2.20;;;27.20;43.00;;;;;;5074894;28;20043;-71
2023/09/11 00:35:00;;;;;;;3.00;1.98;;;27.30;43.10;;;;;;5074371;28;20071;-70
2023/09/11 00:37:26;;;;;;;2.90;1.77;;;27.20;43.10;;;;;;5091162;28;20495;-70
2023/09/11 00:39:53;;;;;;;3.17;2.17;;;27.50;43.10;;;;;;5060105;28;20066;-70
2023/09/11 00:42:19;;;;;;;5.25;2.15;;;27.20;43.10;;;;;;5092278;28;20040;-71
2023/09/11 00:44:45;;;;;;;2.35;1.80;;;27.30;43.20;;;;;;5091950;28;20036;-70
2023/09/11 00:47:21;;;;;;;4.95;1.90;;;27.40;43.20;;;;;;5092192;28;20090;-71
2023/09/11 00:49:47;;;;;;;3.35;1.70;;;27.20;43.20;;;;;;5093633;28;20049;-70
2023/09/11 00:52:14;;;;;;;2.17;1.60;;;27.20;43.20;;;;;;5091946;28;20383;-71
2023/09/11 00:54:40;;;;;;;2.50;1.88;;;27.20;43.20;;;;;;5093475;28;20034;-70
2023/09/11 00:57:07;;;;;;;4.22;1.45;;;27.10;43.20;;;;;;5091832;28;20051;-70
2023/09/11 00:59:56;;;;;;;2.00;1.73;;;27.20;43.20;;;;;;5093100;28;20020;-70
2023/09/11 01:02:23;;;;;;;2.45;1.75;;;27.10;43.20;;;;;;5033531;28;20044;-71
2023/09/11 01:04:49;;;;;;;3.85;2.00;;;27.10;43.30;;;;;;5033563;28;20509;-70
2023/09/11 01:07:17;;;;;;;5.25;2.00;;;27.10;43.20;;;;;;5050321;28;20064;-71
2023/09/11 01:22:15;;;;;;;3.90;1.50;;;27.10;43.40;;;;;;5028480;28;20771;-72
2023/09/11 01:24:41;;;;;;;;;;;27.10;43.50;;;;;;4991604;28;20046;-71
2023/09/11 01:27:36;;;;;;;6.47;2.50;;;27.20;43.50;;;;;;5042512;28;19956;-71
2023/09/11 01:30:04;;;;;;;5.38;2.33;;;27.00;43.50;;;;;;5026751;28;20050;-71
2023/09/11 01:32:31;;;;;;;4.30;1.80;;;27.20;43.50;;;;;;5026846;28;20531;-71
2023/09/11 01:34:57;;;;;;;4.40;2.05;;;27.10;43.50;;;;;;5028216;28;20048;-71
2023/09/11 01:37:23;;;;;;;3.33;1.98;;;27.20;43.60;;;;;;5045356;28;20127;-71
2023/09/11 01:39:49;;;;;;;4.50;1.63;;;27.20;43.60;;;;;;5045408;28;20488;-71
2023/09/11 01:42:20;;;;;;;3.40;1.70;;;27.20;43.60;;;;;;5028913;28;20053;-70
2023/09/11 01:44:48;;;;;;;4.60;1.27;;;27.20;43.70;;;;;;5045264;28;20061;-71
2023/09/11 01:47:20;;;;;;;2.58;1.35;;;27.10;43.70;;;;;;5045431;28;20154;-71
2023/09/11 01:49:48;;;;;;;2.45;1.65;;;27.20;43.70;;;;;;5045363;28;20381;-70
2023/09/11 01:52:16;;;;;;;2.40;1.45;;;27.20;43.70;;;;;;5025165;28;20128;-71
2023/09/11 01:54:43;;;;;;;6.53;1.20;;;27.20;43.70;;;;;;5008728;28;20042;-70
2023/09/11 01:57:09;;;;;;;3.53;1.92;;;27.20;43.70;;;;;;5008969;28;20497;-71
2023/09/11 01:59:35;;;;;;;1.65;1.48;;;27.20;43.70;;;;;;5008904;28;20047;-71
2023/09/11 02:02:01;;;;;;;4.85;1.80;;;27.10;43.70;;;;;;5008607;28;20042;-71
2023/09/11 02:04:29;;;;;;;1.60;1.50;;;27.00;43.80;;;;;;5025177;28;20084;-71
2023/09/11 02:06:54;;;;;;;2.97;1.60;;;27.10;43.80;;;;;;5008633;28;20125;-71
2023/09/11 02:09:20;;;;;;;3.35;1.45;;;27.20;43.80;;;;;;5007091;28;20057;-71
2023/09/11 02:11:46;;;;;;;1.77;1.52;;;27.00;43.80;;;;;;5005276;28;20346;-71
2023/09/11 02:14:13;;;;;;;2.33;1.40;;;27.00;43.80;;;;;;4988929;28;20042;-71
2023/09/11 02:16:39;;;;;;;2.47;1.58;;;27.00;43.80;;;;;;5005175;28;20042;-71
2023/09/11 02:19:05;;;;;;;1.50;1.38;;;27.00;43.80;;;;;;4988863;28;20057;-71
2023/09/11 02:21:31;;;;;;;1.52;1.40;;;27.00;43.90;;;;;;4999897;28;20090;-71
2023/09/11 02:23:57;;;;;;;2.67;1.50;;;27.00;44.00;;;;;;5009609;28;20080;-71
2023/09/11 02:26:24;;;;;;;2.35;1.60;;;27.10;44.00;;;;;;5014329;28;20030;-71
2023/09/11 02:28:50;;;;;;;2.10;1.65;;;27.00;44.10;;;;;;5014013;28;20096;-71
2023/09/11 02:31:16;;;;;;;2.28;1.50;;;27.00;44.10;;;;;;5012663;28;20204;-70
2023/09/11 02:33:42;;;;;;;7.03;1.55;;;26.90;43.50;;;;;;5012698;28;20036;-71
2023/09/11 02:36:08;;;;;;;3.67;1.77;;;27.00;44.10;;;;;;4996464;28;20477;-71
2023/09/11 02:38:34;;;;;;;2.35;1.52;;;27.00;44.10;;;;;;4996153;28;20049;-71
2023/09/11 02:41:00;;;;;;;3.35;1.25;;;27.10;44.10;;;;;;5013759;28;20088;-71
2023/09/11 02:43:26;;;;;;;2.85;1.60;;;27.10;44.10;;;;;;4996176;28;20046;-71
2023/09/11 02:45:52;;;;;;;4.57;2.08;;;27.00;44.10;;;;;;5013572;28;20041;-71
2023/09/11 02:48:18;;;;;;;2.15;1.42;;;27.20;44.10;;;;;;5013797;28;20034;-71
2023/09/11 02:50:44;;;;;;;3.70;1.80;;;27.00;44.10;;;;;;5012121;28;20040;-71
2023/09/11 02:53:12;;;;;;;2.97;1.70;;;27.10;44.10;;;;;;4996121;28;20167;-71
2023/09/11 02:55:42;;;;;;;3.30;1.77;;;27.20;44.10;;;;;;5031053;28;20061;-71
2023/09/11 02:58:08;;;;;;;4.05;1.83;;;27.10;44.10;;;;;;4972066;28;20408;-71
2023/09/11 03:00:35;;;;;;;3.40;2.13;;;27.00;44.10;;;;;;4955758;28;20434;-73
2023/09/11 03:03:03;;;;;;;4.25;2.30;;;27.10;44.10;;;;;;4971844;28;20564;-71
2023/09/11 03:05:32;;;;;;;6.22;1.90;;;27.00;44.10;;;;;;4971989;28;20525;-71
2023/09/11 03:08:02;;;;;;;3.08;1.88;;;26.90;43.60;;;;;;4971747;28;20047;-71
2023/09/11 03:10:29;;;;;;;3.72;1.95;;;27.00;44.10;;;;;;4955582;28;20134;-71
2023/09/11 03:12:57;;;;;;;3.40;1.90;;;26.90;43.60;;;;;;4955781;28;20195;-71
2023/09/11 03:15:28;;;;;;;2.55;2.00;;;26.90;43.60;;;;;;4955546;28;20113;-71
2023/09/11 03:17:54;;;;;;;6.70;2.17;;;26.90;43.70;;;;;;4969384;28;20568;-71
2023/09/11 03:20:20;;;;;;;4.82;2.10;;;26.90;43.80;;;;;;4971492;28;20070;-71
2023/09/11 03:22:47;;;;;;;2.03;1.77;;;26.90;43.80;;;;;;4971661;28;20425;-71
2023/09/11 03:25:13;;;;;;;1.67;1.58;;;27.00;44.40;;;;;;4955329;28;20458;-71
2023/09/11 03:27:40;;;;;;;2.58;1.50;;;27.10;44.40;;;;;;4955335;28;20058;-71
2023/09/11 03:30:06;;;;;;;3.65;1.92;;;27.10;44.50;;;;;;5005581;28;20132;-71
2023/09/11 03:32:32;;;;;;;2.53;1.50;;;26.90;43.90;;;;;;5009455;28;20556;-71
2023/09/11 03:34:59;;;;;;;2.33;1.98;;;27.10;44.40;;;;;;4994648;28;20335;-70
2023/09/11 03:37:25;;;;;;;2.05;1.73;;;27.00;44.50;;;;;;5013034;28;20128;-70
2023/09/11 03:39:51;;;;;;;2.30;1.50;;;26.90;43.90;;;;;;5011536;28;20046;-71
2023/09/11 03:42:17;;;;;;;1.75;1.30;;;27.10;44.50;;;;;;5011607;28;20030;-71
2023/09/11 03:44:44;;;;;;;1.90;1.75;;;27.00;44.50;;;;;;5011507;28;20041;-72
2023/09/11 03:47:11;;;;;;;1.60;1.10;;;27.00;44.40;;;;;;5011672;28;20057;-71
2023/09/11 03:49:38;;;;;;;1.17;1.08;;;27.00;44.40;;;;;;5011318;28;20430;-71
2023/09/11 03:52:04;;;;;;;1.40;1.30;;;27.00;44.40;;;;;;5011576;28;20153;-69
2023/09/11 03:54:30;;;;;;;0.93;0.90;;;27.10;44.40;;;;;;4994825;28;20542;-71
2023/09/11 03:56:56;;;;;;;1.45;1.02;;;27.10;46.90;;;;;;5011138;28;20105;-73
2023/09/11 03:59:22;;;;;;;4.72;1.17;;;27.30;47.80;;;;;;5011044;28;20394;-73
2023/09/11 04:01:48;;;;;;;1.33;1.10;;;27.50;51.10;;;;;;5011299;28;20112;-73
2023/09/11 04:04:15;;;;;;;3.00;1.30;;;27.50;48.70;;;;;;5011028;28;20112;-72
2023/09/11 04:06:41;;;;;;;12.32;3.20;;;27.60;51.90;;;;;;5012369;28;20041;-74
2023/09/11 04:09:07;;;;;;;4.35;2.03;;;27.60;46.70;;;;;;5011182;28;20049;-74
2023/09/11 04:11:33;;;;;;;2.50;1.63;;;27.60;44.80;;;;;;5012214;28;20030;-74
2023/09/11 04:13:59;;;;;;;3.67;1.90;;;27.50;44.00;;;;;;5010816;28;20041;-74
2023/09/11 04:16:25;;;;;;;2.42;1.48;;;27.40;43.40;;;;;;5010843;28;20034;-73
2023/09/11 04:18:51;;;;;;;4.55;2.22;;;27.30;43.10;;;;;;5010828;28;20034;-73
2023/09/11 04:21:19;;;;;;;2.90;1.60;;;27.30;42.80;;;;;;5010346;28;20061;-73
2023/09/11 04:23:45;;;;;;;2.50;1.77;;;27.40;42.40;;;;;;5011964;28;20092;-73
2023/09/11 04:26:11;;;;;;;3.67;2.00;;;27.20;42.20;;;;;;5010845;28;20037;-73
2023/09/11 04:28:37;;;;;;;1.83;1.70;;;27.20;41.90;;;;;;5010762;28;20034;-75
2023/09/11 04:31:04;;;;;;;2.90;1.70;;;27.30;41.70;;;;;;5010655;28;20045;-74
2023/09/11 04:33:30;;;;;;;5.47;1.70;;;27.30;41.50;;;;;;5011880;28;20053;-72
2023/09/11 04:35:56;;;;;;;3.05;2.42;;;27.20;41.40;;;;;;5010475;28;20124;-72
2023/09/11 04:38:22;;;;;;;3.47;1.67;;;27.20;41.30;;;;;;5010397;28;20025;-73
2023/09/11 04:40:53;;;;;;;2.03;1.83;;;27.20;41.50;;;;;;5011050;28;20084;-72
2023/09/11 04:43:19;;;;;;;3.53;1.95;;;27.20;41.50;;;;;;5010435;28;20052;-72
2023/09/11 04:45:45;;;;;;;3.88;1.65;;;27.20;41.30;;;;;;5010301;28;20040;-73
2023/09/11 04:48:11;;;;;;;2.20;1.73;;;27.30;41.10;;;;;;5010571;28;20404;-71
2023/09/11 04:50:37;;;;;;;1.90;1.80;;;27.20;41.00;;;;;;5010243;28;20480;-71
2023/09/11 04:53:04;;;;;;;2.28;1.58;;;27.20;40.90;;;;;;5010340;28;20042;-72
2023/09/11 04:55:30;;;;;;;1.90;1.70;;;27.30;40.90;;;;;;5010122;28;20086;-71
2023/09/11 04:57:56;;;;;;;2.28;1.70;;;27.10;40.90;;;;;;5010092;28;20088;-71
2023/09/11 05:00:22;;;;;;;1.70;1.58;;;27.20;40.70;;;;;;5028357;28;20100;-71
2023/09/11 05:02:50;;;;;;;2.25;1.88;;;27.10;40.70;;;;;;5028771;28;20100;-72
2023/09/11 05:05:16;;;;;;;2.38;1.95;;;27.30;40.70;;;;;;5028513;28;20041;-72
2023/09/11 05:07:42;;;;;;;5.50;2.25;;;27.10;40.80;;;;;;5008790;28;20038;-72
2023/09/11 05:10:09;;;;;;;3.78;2.53;;;27.10;40.60;;;;;;4976456;28;20116;-72
2023/09/11 05:12:36;;;;;;;3.45;2.25;;;27.20;40.50;;;;;;4953563;28;20093;-70
2023/09/11 05:15:02;;;;;;;5.80;3.22;;;27.20;40.20;;;;;;4953731;28;20077;-70
2023/09/11 05:17:28;;;;;;;3.90;2.58;;;27.20;39.10;;;;;;4953615;28;20051;-71
2023/09/11 05:19:54;;;;;;;5.72;2.75;;;27.20;39.00;;;;;;4953506;28;20152;-70
2023/09/11 05:22:20;;;;;;;9.13;2.45;;;27.20;40.30;;;;;;4969743;28;20121;-71
2023/09/11 05:24:46;;;;;;;4.15;2.35;;;27.30;40.50;;;;;;4969595;28;20031;-71
2023/09/11 05:27:12;;;;;;;5.03;3.20;;;27.30;43.70;;;;;;4969668;28;20058;-70
2023/09/11 05:29:38;;;;;;;3.67;3.05;;;27.30;42.20;;;;;;4969849;28;20043;-70
2023/09/11 05:32:04;;;;;;;8.25;4.60;;;27.30;45.40;;;;;;4938334;29;20114;-69
2023/09/11 05:34:30;;;;;;;4.97;4.47;;;27.30;44.60;;;;;;4950489;29;20113;-71
2023/09/11 05:36:56;;;;;;;3.00;2.28;;;27.30;46.00;;;;;;4950454;29;20059;-70
2023/09/11 05:39:22;;;;;;;3.13;2.03;;;27.40;45.80;;;;;;4980615;28;20061;-71
2023/09/11 05:41:49;;;;;;;5.90;2.17;;;27.40;45.20;;;;;;4988675;28;20046;-72
2023/09/11 05:44:15;;;;;;;2.20;1.90;;;27.30;44.40;;;;;;4970475;28;20046;-71
2023/09/11 05:46:41;;;;;;;4.50;2.30;;;27.30;43.70;;;;;;4991511;28;20042;-71
2023/09/11 05:49:07;;;;;;;2.90;2.03;;;27.60;43.70;;;;;;4991479;28;20116;-71
2023/09/11 05:51:33;;;;;;;5.82;2.20;;;27.40;43.80;;;;;;4991350;28;20378;-71
2023/09/11 05:53:59;;;;;;;6.00;1.90;;;27.40;43.20;;;;;;4991398;28;20061;-72
2023/09/11 05:56:25;;;;;;;2.00;1.80;;;27.40;41.90;;;;;;4992095;28;20030;-71
2023/09/11 05:58:51;;;;;;;4.28;2.25;;;27.50;42.20;;;;;;4995411;28;20030;-70
2023/09/11 06:01:17;;;;;;;3.20;2.30;;;27.40;41.80;;;;;;4995299;28;20077;-71
2023/09/11 06:03:43;;;;;;;4.07;2.20;;;27.20;41.30;;;;;;4995260;28;20042;-71
2023/09/11 06:06:09;;;;;;;2.85;2.50;;;27.40;42.30;;;;;;4995084;28;20042;-71
2023/09/11 06:08:35;;;;;;;2.50;2.30;;;27.40;41.80;;;;;;4995231;28;20040;-70
2023/09/11 06:11:01;;;;;;;6.50;2.55;;;27.30;41.50;;;;;;4994761;28;20113;-70
2023/09/11 06:13:27;;;;;;;3.75;2.45;;;27.40;41.30;;;;;;4995207;28;20046;-72
2023/09/11 06:15:53;;;;;;;2.95;1.98;;;27.20;41.20;;;;;;4994886;28;20046;-72
2023/09/11 06:18:19;;;;;;;5.65;2.63;;;27.30;41.00;;;;;;4992669;28;20053;-72
2023/09/11 06:20:45;;;;;;;7.68;2.17;;;27.40;40.80;;;;;;4995102;28;20085;-72
2023/09/11 06:23:12;;;;;;;2.53;2.28;;;27.30;40.70;;;;;;4998852;28;20037;-70
2023/09/11 06:25:38;;;;;;;5.25;2.65;;;27.50;40.60;;;;;;5004354;28;20037;-70
2023/09/11 06:28:05;;;;;;;3.42;2.00;;;27.50;40.70;;;;;;5000326;28;20100;-69
2023/09/11 06:30:32;;;;;;;3.42;2.15;;;27.40;40.90;;;;;;4994603;28;20040;-70
2023/09/11 06:32:58;;;;;;;8.73;2.67;;;27.40;41.00;;;;;;5012594;28;20044;-73
2023/09/11 06:35:24;;;;;;;3.00;2.17;;;27.50;40.60;;;;;;5014094;28;20042;-74
2023/09/11 06:37:50;;;;;;;5.70;2.35;;;27.40;40.60;;;;;;5014266;28;20430;-72
2023/09/11 06:40:16;;;;;;;2.08;1.90;;;27.50;40.50;;;;;;5010548;28;20034;-71
2023/09/11 06:42:42;;;;;;;5.80;2.50;;;27.30;40.70;;;;;;5013868;28;20044;-71
2023/09/11 06:45:08;;;;;;;3.53;2.20;;;27.30;41.90;;;;;;5014043;28;20034;-72
2023/09/11 06:47:35;;;;;;;4.82;2.55;;;27.40;41.90;;;;;;5013979;28;20034;-71
2023/09/11 06:50:01;;;;;;;2.47;2.00;;;27.40;41.80;;;;;;5014080;28;20033;-71
2023/09/11 06:52:27;;;;;;;6.20;2.42;;;27.50;41.70;;;;;;5013736;28;20073;-72
2023/09/11 06:54:54;;;;;;;3.22;2.55;;;27.40;41.80;;;;;;5013684;28;20463;-72
2023/09/11 06:57:21;;;;;;;3.10;2.58;;;27.30;41.80;;;;;;5013834;28;20022;-73
2023/09/11 06:59:47;;;;;;;2.38;2.17;;;27.40;41.50;;;;;;5013981;28;20065;-72
2023/09/11 07:02:13;;;;;;;2.22;2.03;;;27.30;41.70;;;;;;5013945;28;20029;-72
2023/09/11 07:04:39;;;;;;;7.40;2.30;;;27.40;42.00;;;;;;5013630;28;20083;-73
2023/09/11 07:07:05;;;;;;;4.65;1.98;;;27.40;42.40;;;;;;5014002;28;20120;-69
2023/09/11 07:09:31;;;;;;;7.07;2.25;;;27.40;42.90;;;;;;5013922;28;20044;-70
2023/09/11 07:11:57;;;;;;;5.97;3.00;;;27.30;42.70;;;;;;5013526;28;20042;-71
2023/09/11 07:14:23;;;;;;;13.80;3.10;;;27.40;42.30;;;;;;5013809;28;20030;-70
2023/09/11 07:16:49;;;;;;;5.45;2.30;;;27.30;42.10;;;;;;5013703;28;20029;-70
2023/09/11 07:19:16;;;;;;;2.25;2.05;;;27.20;42.00;;;;;;4979512;28;20036;-69
2023/09/11 07:21:44;;;;;;;2.72;2.05;;;27.30;42.10;;;;;;5013467;28;20133;-71
2023/09/11 07:24:10;;;;;;;6.00;2.70;;;27.20;41.80;;;;;;5012959;28;20428;-71
2023/09/11 07:26:36;;;;;;;5.60;2.38;;;27.30;41.70;;;;;;5012242;28;20061;-73
2023/09/11 07:29:03;;;;;;;4.60;2.75;;;27.30;42.10;;;;;;5012944;28;20061;-71
2023/09/11 07:31:30;;;;;;;3.35;2.45;;;27.40;42.10;;;;;;5005120;28;20045;-74
2023/09/11 07:33:56;;;;;;;8.95;2.33;;;27.20;42.40;;;;;;4992361;28;20095;-71
2023/09/11 07:36:23;;;;;;;6.07;2.22;;;27.20;42.20;;;;;;4993650;28;20478;-71
2023/09/11 07:38:49;;;;;;;3.28;2.03;;;27.20;42.20;;;;;;5009922;28;20034;-71
2023/09/11 07:41:17;;;;;;;2.50;2.30;;;27.20;42.10;;;;;;5013231;28;20496;-71
2023/09/11 07:43:48;;;;;;;6.78;2.85;;;27.40;41.90;;;;;;5012559;28;20030;-71
2023/09/11 07:46:15;;;;;;;6.72;2.40;;;27.20;41.70;;;;;;5012585;28;20038;-72
2023/09/11 07:48:41;;;;;;;4.60;2.83;;;27.20;41.50;;;;;;5012198;28;20034;-70
2023/09/11 07:51:07;;;;;;;4.40;2.72;;;27.20;41.40;;;;;;5012162;28;20377;-70
2023/09/11 07:53:33;;;;;;;3.72;2.60;;;27.30;41.20;;;;;;5012596;28;20030;-69
2023/09/11 07:56:03;;;;;;;6.50;2.17;;;27.30;41.20;;;;;;5012548;28;20037;-68
2023/09/11 07:58:30;;;;;;;5.00;2.70;;;27.40;41.20;;;;;;5012043;28;20431;-69
2023/09/11 08:00:56;;;;;;;7.22;2.63;;;27.30;41.10;;;;;;5010675;28;20374;-67
2023/09/11 08:03:22;;;;;;;4.20;2.45;;;27.40;41.30;;;;;;5012536;28;20044;-69
2023/09/11 08:05:48;;;;;;;4.10;2.97;;;27.30;41.30;;;;;;5012082;28;20026;-69
2023/09/11 08:08:14;;;;;;;7.50;2.90;;;27.40;41.20;;;;;;5012695;28;20781;-69
2023/09/11 08:10:40;;;;;;;5.68;2.80;;;27.30;41.20;;;;;;5012432;28;20049;-69
2023/09/11 08:13:06;;;;;;;2.63;2.42;;;27.40;41.20;;;;;;5029620;28;20045;-69
2023/09/11 08:15:32;;;;;;;7.40;2.97;;;27.40;41.10;;;;;;5029401;28;20523;-69
2023/09/11 08:17:58;;;;;;;3.75;2.00;;;27.50;44.40;;;;;;5029447;28;20129;-68
2023/09/11 08:20:24;;;;;;;6.47;3.30;;;27.80;44.60;;;;;;5028431;28;20072;-71
2023/09/11 08:22:50;;;;;;;16.52;3.70;;;27.70;43.80;;;;;;5012961;28;20045;-70
2023/09/11 08:25:16;;;;;;;4.25;2.28;;;27.80;43.80;;;;;;5029321;28;20037;-74
2023/09/11 08:27:42;;;;;;;7.15;2.58;;;27.90;46.90;;;;;;5029269;28;20102;-73
2023/09/11 08:30:08;;;;;;;3.90;2.83;;;28.10;46.40;;;;;;5029304;28;20488;-72
2023/09/11 08:32:34;;;;;;;3.95;1.98;;;28.00;43.50;;;;;;5028759;28;20137;-73
2023/09/11 08:35:02;;;;;;;2.72;1.98;;;28.00;42.30;;;;;;5029010;28;20664;-74
2023/09/11 08:37:29;;;;;;;4.55;2.70;;;27.90;41.30;;;;;;5028852;28;20037;-71
2023/09/11 08:39:55;;;;;;;2.35;1.52;;;27.80;40.90;;;;;;5029160;28;20041;-77
2023/09/11 08:42:23;;;;;;;3.63;2.10;;;27.90;40.50;;;;;;5028967;28;20037;-74
2023/09/11 08:44:52;;;;;;;2.85;1.77;;;27.80;40.00;;;;;;5014941;28;20050;-71
2023/09/11 08:47:23;;;;;;;5.35;1.80;;;27.70;39.80;;;;;;5011585;28;20466;-72
2023/09/11 08:49:57;;;;;;;2.38;1.90;;;27.90;39.60;;;;;;5011495;28;20041;-76
2023/09/11 08:52:25;;;;;;;2.22;1.50;;;27.80;39.40;;;;;;5011479;28;20037;-72
2023/09/11 08:54:53;;;;;;;1.63;1.05;;;27.80;39.10;;;;;;5010282;28;20056;-72
2023/09/11 08:57:24;;;;;;;2.60;1.92;;;27.70;38.90;;;;;;5028780;28;20238;-72
2023/09/11 08:59:56;;;;;;;2.25;1.63;;;27.80;38.70;;;;;;5028724;28;20046;-73
2023/09/11 09:02:24;;;;;;;3.77;1.63;;;27.80;38.70;;;;;;5012333;28;20046;-69
2023/09/11 09:04:51;;;;;;;3.20;1.70;;;27.80;38.60;;;;;;5028875;28;20283;-71
2023/09/11 09:07:18;;;;;;;6.40;2.08;;;27.80;38.40;;;;;;5028395;28;20479;-71
2023/09/11 09:09:45;;;;;;;4.28;1.90;;;27.90;38.30;;;;;;5028355;28;20037;-71
2023/09/11 09:12:11;;;;;;;4.22;1.88;;;27.80;41.30;;;;;;5028558;28;20049;-72
2023/09/11 09:14:40;;;;;;;3.85;3.28;;;28.10;43.30;;;;;;5012173;28;20393;-75
2023/09/11 09:17:06;;;;;;;41.40;25.08;;;28.40;42.40;;;;;;5028375;28;20628;-73
2023/09/11 09:19:33;;;;;;;77.55;35.72;;;28.50;40.00;;;;;;5011990;28;20041;-75
2023/09/11 09:22:05;;;;;;;47.40;22.70;;;28.50;39.00;;;;;;5028369;28;20056;-73
2023/09/11 09:24:31;;;;;;;23.70;13.35;;;28.40;38.10;;;;;;5028489;28;20455;-74
2023/09/11 09:26:59;;;;;;;18.13;7.93;;;28.30;37.60;;;;;;5011720;28;20481;-72
2023/09/11 09:29:26;;;;;;;16.67;6.65;;;28.10;35.30;;;;;;5008183;28;20034;-73
2023/09/11 09:31:52;;;;;;;9.43;5.57;;;28.00;37.10;;;;;;5000242;28;20031;-73
2023/09/11 09:34:18;;;;;;;8.48;4.72;;;28.10;37.60;;;;;;5014736;28;20378;-74
2023/09/11 09:36:55;;;;;;;4.65;3.10;;;28.10;38.20;;;;;;5014929;28;20132;-72
2023/09/11 09:39:22;;;;;;;8.70;3.28;;;28.30;40.10;;;;;;5012770;28;20034;-73
2023/09/11 09:41:55;;;;;;;3.80;2.70;;;28.50;38.70;;;;;;5014670;28;20367;-70
2023/09/11 09:44:30;;;;;;;13.00;2.78;;;28.50;38.60;;;;;;5015246;28;20026;-70
2023/09/11 09:47:05;;;;;;;9.55;3.15;;;28.50;39.20;;;;;;5013255;28;20496;-72
2023/09/11 09:49:41;;;;;;;5.25;3.22;;;28.80;43.60;;;;;;5014739;28;20030;-70
2023/09/11 09:52:07;;;;;;;9.02;2.72;;;29.00;42.30;;;;;;5014711;28;20053;-71
2023/09/11 09:54:57;;;;;;;7.28;2.35;;;28.90;38.70;;;;;;5014797;28;20038;-72
2023/09/11 09:57:25;;;;;;;4.25;2.28;;;29.00;38.60;;;;;;4973063;28;20135;-72
2023/09/11 09:59:54;;;;;;;6.82;2.58;;;28.70;37.60;;;;;;4973166;28;20059;-71
2023/09/11 10:02:25;;;;;;;5.22;2.45;;;28.90;37.70;;;;;;4957005;28;20427;-70
2023/09/11 10:04:56;;;;;;;1.83;1.73;;;28.80;37.40;;;;;;4972840;28;20050;-71
2023/09/11 10:07:42;;;;;;;4.28;2.17;;;28.60;37.40;;;;;;4972820;28;20031;-73
2023/09/11 10:10:25;;;;;;;5.80;1.73;;;28.70;37.70;;;;;;4956674;28;20074;-70
2023/09/11 10:13:09;;;;;;;3.17;1.98;;;28.70;38.40;;;;;;4972761;28;20138;-70
2023/09/11 10:15:37;;;;;;;2.17;1.67;;;28.80;44.60;;;;;;4972933;28;20046;-71
2023/09/11 10:18:04;;;;;;;3.17;2.63;;;29.80;47.40;;;;;;4933907;29;20050;-71
2023/09/11 10:20:31;;;;;;;3.30;2.20;;;30.50;47.40;;;;;;4934001;29;20055;-72
2023/09/11 10:22:59;;;;;;;7.55;3.72;;;30.40;42.40;;;;;;4899420;29;20044;-70
2023/09/11 10:25:27;;;;;;;4.68;3.22;;;30.10;42.10;;;;;;4915287;29;20191;-73
2023/09/11 10:28:08;;;;;;;5.55;3.38;;;29.80;40.60;;;;;;4915035;29;20055;-72
2023/09/11 10:30:50;;;;;;;3.22;1.60;;;29.60;39.30;;;;;;4914894;29;20048;-71
2023/09/11 10:33:21;;;;;;;2.60;1.43;;;29.30;39.40;;;;;;4917433;28;20055;-72
2023/09/11 10:35:59;;;;;;;3.75;1.55;;;29.30;39.30;;;;;;4972693;28;20462;-74
2023/09/11 10:38:30;;;;;;;2.65;1.70;;;29.30;39.80;;;;;;4972787;28;20098;-74
2023/09/11 10:40:58;;;;;;;2.67;1.70;;;29.30;40.40;;;;;;4956381;28;20446;-72
2023/09/11 10:43:24;;;;;;;1.55;1.45;;;29.10;40.70;;;;;;4971993;28;20057;-71
2023/09/11 10:45:51;;;;;;;2.15;1.38;;;29.10;40.40;;;;;;4972290;28;20098;-70
2023/09/11 10:48:31;;;;;;;2.65;1.95;;;29.20;39.80;;;;;;4972096;28;20046;-71
2023/09/11 10:50:59;;;;;;;3.70;1.77;;;29.00;40.20;;;;;;4972111;28;20074;-72
2023/09/11 10:53:29;;;;;;;2.70;1.42;;;28.90;38.40;;;;;;4956020;28;20062;-71
2023/09/11 10:55:57;;;;;;;2.42;1.85;;;28.90;39.40;;;;;;4986759;28;20049;-72
2023/09/11 10:58:25;;;;;;;3.17;2.08;;;28.80;39.60;;;;;;4993860;28;20034;-71
2023/09/11 11:00:53;;;;;;;2.95;2.03;;;28.90;39.80;;;;;;4993808;28;20038;-71
2023/09/11 11:03:20;;;;;;;3.78;1.80;;;28.80;39.90;;;;;;5012385;28;20038;-72
2023/09/11 11:05:47;;;;;;;4.32;1.50;;;28.60;39.90;;;;;;5013501;28;20034;-72
2023/09/11 11:08:15;;;;;;;3.15;1.98;;;28.60;39.90;;;;;;5012001;28;20061;-70
2023/09/11 11:10:44;;;;;;;5.68;2.55;;;28.60;40.00;;;;;;5013183;28;20040;-71
2023/09/11 11:13:11;;;;;;;2.72;2.00;;;28.80;42.90;;;;;;5013625;28;20096;-69
2023/09/11 11:15:37;;;;;;;3.90;2.00;;;29.10;42.70;;;;;;5012005;28;20037;-71
2023/09/11 11:18:06;;;;;;;3.17;1.90;;;29.00;41.60;;;;;;5013428;28;20037;-72
2023/09/11 11:20:34;;;;;;;3.25;2.05;;;28.90;40.80;;;;;;5030338;28;20062;-73
2023/09/11 11:23:12;;;;;;;3.65;1.90;;;29.00;43.70;;;;;;5014243;28;20085;-74
2023/09/11 11:25:42;;;;;;;3.15;2.20;;;29.00;42.70;;;;;;5030128;28;20037;-72
2023/09/11 11:28:17;;;;;;;2.90;1.75;;;29.00;40.70;;;;;;5029833;28;20500;-71
2023/09/11 11:30:44;;;;;;;4.40;1.75;;;28.80;40.10;;;;;;5012335;28;20044;-72
2023/09/11 11:33:15;;;;;;;2.00;1.90;;;28.80;39.70;;;;;;5013525;28;20472;-71
2023/09/11 11:35:45;;;;;;;4.30;1.67;;;28.70;39.60;;;;;;5030407;28;20516;-70
2023/09/11 11:38:18;;;;;;;6.10;1.98;;;28.70;39.80;;;;;;5010111;28;20056;-71
2023/09/11 11:40:46;;;;;;;2.08;1.63;;;28.70;39.80;;;;;;5010311;28;20534;-74
2023/09/11 11:43:13;;;;;;;3.17;1.75;;;28.70;40.00;;;;;;5022554;28;20052;-70
2023/09/11 11:45:44;;;;;;;2.05;1.80;;;28.60;40.00;;;;;;5029936;28;20037;-72
2023/09/11 11:48:14;;;;;;;1.83;1.20;;;28.70;39.80;;;;;;5029823;28;20041;-70
2023/09/11 11:50:47;;;;;;;4.43;1.90;;;28.70;40.00;;;;;;5013948;28;20424;-73
2023/09/11 11:53:18;;;;;;;4.88;1.83;;;28.70;40.40;;;;;;5013318;28;20091;-72
2023/09/11 11:55:44;;;;;;;1.50;1.40;;;28.60;40.50;;;;;;5013177;28;20048;-72
2023/09/11 11:58:12;;;;;;;2.55;1.80;;;28.70;40.50;;;;;;5019573;28;20050;-71
2023/09/11 12:00:58;;;;;;;3.15;1.95;;;28.60;40.50;;;;;;5012727;28;20099;-73
2023/09/11 12:03:29;;;;;;;4.30;1.88;;;28.60;40.70;;;;;;5011876;28;20569;-71
2023/09/11 12:05:57;;;;;;;2.70;1.52;;;28.50;42.10;;;;;;5013050;28;20120;-71
2023/09/11 12:08:23;;;;;;;5.57;1.92;;;28.50;42.50;;;;;;5012421;28;20371;-75
2023/09/11 12:10:49;;;;;;;4.22;1.88;;;28.50;42.50;;;;;;5012445;28;20056;-72
2023/09/11 12:13:22;;;;;;;2.25;1.65;;;28.50;42.20;;;;;;5012537;28;20038;-72
2023/09/11 12:15:56;;;;;;;;;;;28.40;41.90;;;;;;5011991;28;20394;-72
2023/09/11 12:18:23;;;;;;;5.22;1.65;;;28.40;41.30;;;;;;5012269;28;19917;-74
2023/09/11 12:21:03;;;;;;;3.63;1.58;;;28.30;41.80;;;;;;5012243;28;20057;-70
2023/09/11 12:23:30;;;;;;;2.97;1.38;;;28.40;41.80;;;;;;5012000;28;20041;-68
2023/09/11 12:25:56;;;;;;;4.07;1.63;;;28.50;41.70;;;;;;5010038;28;20120;-70
2023/09/11 12:28:23;;;;;;;2.30;1.90;;;28.40;41.80;;;;;;5011869;28;20529;-69
2023/09/11 12:30:50;;;;;;;4.35;1.70;;;28.30;41.80;;;;;;5012094;28;20504;-70
2023/09/11 12:33:27;;;;;;;2.60;1.75;;;28.50;41.80;;;;;;5011960;28;20038;-70
2023/09/11 12:35:55;;;;;;;6.95;1.63;;;28.40;41.90;;;;;;5012043;28;20079;-68
2023/09/11 12:38:22;;;;;;;2.38;1.50;;;28.40;42.00;;;;;;5011496;28;20037;-67
2023/09/11 12:40:50;;;;;;;1.67;1.55;;;28.50;42.10;;;;;;5010581;28;20049;-67
2023/09/11 12:43:17;;;;;;;1.98;1.40;;;28.30;42.10;;;;;;5011558;28;20107;-69
2023/09/11 12:45:44;;;;;;;1.85;1.45;;;28.40;42.20;;;;;;5009411;28;20050;-69
2023/09/11 12:48:10;;;;;;;2.20;1.40;;;28.20;42.20;;;;;;5011346;28;20033;-67
2023/09/11 12:50:39;;;;;;;1.67;1.30;;;28.30;42.20;;;;;;5011522;28;20078;-70
2023/09/11 12:53:05;;;;;;;1.77;1.17;;;28.30;41.90;;;;;;5012059;28;20169;-70
2023/09/11 12:55:32;;;;;;;3.55;1.40;;;28.20;39.60;;;;;;4993920;28;20401;-71
2023/09/11 12:58:00;;;;;;;2.22;1.63;;;28.10;38.30;;;;;;5011794;28;20124;-68
2023/09/11 13:00:33;;;;;;;2.08;1.38;;;28.20;37.60;;;;;;5010541;28;20033;-71
2023/09/11 13:03:03;;;;;;;2.58;1.40;;;28.10;38.90;;;;;;5011504;28;20072;-70
2023/09/11 13:05:30;;;;;;;1.98;1.30;;;28.10;40.50;;;;;;5010164;28;20099;-71
2023/09/11 13:07:58;;;;;;;2.42;1.45;;;28.10;41.30;;;;;;5010170;28;20397;-70